sensor_id;sensor_type;location;lat;lon;timestamp;temperature;humidity
63219;DHT22;49320;52.512;13.448;2022-12-18T00:01:30;-0.70;77.30
63219;DHT22;49320;52.512;13.448;2022-12-18T00:04:01;-0.70;77.20
63219;DHT22;49320;52.512;13.448;2022-12-18T00:06:31;-0.80;77.00
63219;DHT22;49320;52.512;13.448;2022-12-18T00:09:00;-0.80;77.10
63219;DHT22;49320;52.512;13.448;2022-12-18T00:11:29;-0.90;77.10
63219;DHT22;49320;52.512;13.448;2022-12-18T00:13:58;-0.90;77.20
63219;DHT22;49320;52.512;13.448;2022-12-18T00:16:28;-1.00;77.10
63219;DHT22;49320;52.512;13.448;2022-12-18T00:19:00;-1.00;77.20
63219;DHT22;49320;52.512;13.448;2022-12-18T00:21:28;-1.00;77.50
63219;DHT22;49320;52.512;13.448;2022-12-18T00:23:56;-1.10;77.50
63219;DHT22;49320;52.512;13.448;2022-12-18T00:26:29;-1.10;77.70
63219;DHT22;49320;52.512;13.448;2022-12-18T00:29:03;-1.10;78.00
63219;DHT22;49320;52.512;13.448;2022-12-18T00:31:35;-1.10;78.10
63219;DHT22;49320;52.512;13.448;2022-12-18T00:36:33;-1.10;77.70
63219;DHT22;49320;52.512;13.448;2022-12-18T00:39:02;-1.10;78.40
63219;DHT22;49320;52.512;13.448;2022-12-18T00:44:17;-1.10;77.60
63219;DHT22;49320;52.512;13.448;2022-12-18T00:46:45;-1.00;78.80
63219;DHT22;49320;52.512;13.448;2022-12-18T00:49:16;-1.10;77.90
63219;DHT22;49320;52.512;13.448;2022-12-18T00:51:45;-1.10;77.40
63219;DHT22;49320;52.512;13.448;2022-12-18T00:54:12;-1.20;77.80
63219;DHT22;49320;52.512;13.448;2022-12-18T00:56:39;-1.20;77.70
63219;DHT22;49320;52.512;13.448;2022-12-18T00:59:14;-1.20;77.40
63219;DHT22;49320;52.512;13.448;2022-12-18T01:01:41;-1.30;77.50
63219;DHT22;49320;52.512;13.448;2022-12-18T01:04:09;-1.30;77.50
63219;DHT22;49320;52.512;13.448;2022-12-18T01:06:36;-1.30;78.40
63219;DHT22;49320;52.512;13.448;2022-12-18T01:09:03;-1.30;77.90
63219;DHT22;49320;52.512;13.448;2022-12-18T01:11:30;-1.40;77.90
63219;DHT22;49320;52.512;13.448;2022-12-18T01:13:58;-1.30;78.20
63219;DHT22;49320;52.512;13.448;2022-12-18T01:16:25;-1.40;78.30
63219;DHT22;49320;52.512;13.448;2022-12-18T01:18:53;-1.30;78.40
63219;DHT22;49320;52.512;13.448;2022-12-18T01:21:21;-1.30;78.50
63219;DHT22;49320;52.512;13.448;2022-12-18T01:23:54;-1.30;78.50
63219;DHT22;49320;52.512;13.448;2022-12-18T01:26:24;-1.30;78.30
63219;DHT22;49320;52.512;13.448;2022-12-18T01:28:53;-1.30;78.00
63219;DHT22;49320;52.512;13.448;2022-12-18T01:31:26;-1.30;77.80
63219;DHT22;49320;52.512;13.448;2022-12-18T01:33:54;-1.30;77.60
63219;DHT22;49320;52.512;13.448;2022-12-18T01:36:33;-1.40;77.70
63219;DHT22;49320;52.512;13.448;2022-12-18T01:39:06;-1.40;77.20
63219;DHT22;49320;52.512;13.448;2022-12-18T01:41:36;-1.40;77.20
63219;DHT22;49320;52.512;13.448;2022-12-18T01:47:41;-1.50;77.40
63219;DHT22;49320;52.512;13.448;2022-12-18T01:50:15;-1.50;77.50
63219;DHT22;49320;52.512;13.448;2022-12-18T01:52:47;-1.60;77.60
63219;DHT22;49320;52.512;13.448;2022-12-18T01:55:20;-1.60;77.80
63219;DHT22;49320;52.512;13.448;2022-12-18T01:57:52;-1.60;77.80
63219;DHT22;49320;52.512;13.448;2022-12-18T02:00:22;-1.60;77.70
63219;DHT22;49320;52.512;13.448;2022-12-18T02:02:50;-1.60;77.70
63219;DHT22;49320;52.512;13.448;2022-12-18T02:05:33;-1.70;77.20
63219;DHT22;49320;52.512;13.448;2022-12-18T02:08:16;-1.70;78.00
63219;DHT22;49320;52.512;13.448;2022-12-18T02:11:01;-1.70;78.10
63219;DHT22;49320;52.512;13.448;2022-12-18T02:23:19;-1.80;78.60
63219;DHT22;49320;52.512;13.448;2022-12-18T02:26:11;-1.80;78.70
63219;DHT22;49320;52.512;13.448;2022-12-18T02:28:55;-1.80;78.80
63219;DHT22;49320;52.512;13.448;2022-12-18T02:31:31;-1.70;78.80
63219;DHT22;49320;52.512;13.448;2022-12-18T02:34:07;-1.70;78.70
63219;DHT22;49320;52.512;13.448;2022-12-18T02:36:38;-1.70;78.50
63219;DHT22;49320;52.512;13.448;2022-12-18T02:39:10;-1.70;78.40
63219;DHT22;49320;52.512;13.448;2022-12-18T02:41:39;-1.70;78.30
63219;DHT22;49320;52.512;13.448;2022-12-18T02:44:09;-1.70;78.20
63219;DHT22;49320;52.512;13.448;2022-12-18T02:46:44;-1.60;78.40
63219;DHT22;49320;52.512;13.448;2022-12-18T02:49:55;-1.70;79.20
63219;DHT22;49320;52.512;13.448;2022-12-18T02:52:49;-1.70;78.60
63219;DHT22;49320;52.512;13.448;2022-12-18T02:55:36;-1.60;78.60
63219;DHT22;49320;52.512;13.448;2022-12-18T02:58:37;-1.60;78.40
63219;DHT22;49320;52.512;13.448;2022-12-18T03:01:41;-1.60;78.40
63219;DHT22;49320;52.512;13.448;2022-12-18T03:04:21;-1.70;78.30
63219;DHT22;49320;52.512;13.448;2022-12-18T03:07:10;-1.70;78.30
63219;DHT22;49320;52.512;13.448;2022-12-18T03:09:49;-1.70;78.20
63219;DHT22;49320;52.512;13.448;2022-12-18T03:12:22;-1.70;78.20
63219;DHT22;49320;52.512;13.448;2022-12-18T03:15:09;-1.70;78.20
63219;DHT22;49320;52.512;13.448;2022-12-18T03:17:48;-1.70;78.30
63219;DHT22;49320;52.512;13.448;2022-12-18T03:20:21;-1.80;77.50
63219;DHT22;49320;52.512;13.448;2022-12-18T03:22:55;-1.80;78.00
63219;DHT22;49320;52.512;13.448;2022-12-18T03:25:27;-1.80;78.00
63219;DHT22;49320;52.512;13.448;2022-12-18T03:27:56;-1.90;77.90
63219;DHT22;49320;52.512;13.448;2022-12-18T03:30:28;-1.80;78.20
63219;DHT22;49320;52.512;13.448;2022-12-18T03:33:09;-1.90;78.30
63219;DHT22;49320;52.512;13.448;2022-12-18T03:35:42;-1.80;78.40
63219;DHT22;49320;52.512;13.448;2022-12-18T03:38:10;-1.90;78.00
63219;DHT22;49320;52.512;13.448;2022-12-18T03:40:58;-1.90;78.60
63219;DHT22;49320;52.512;13.448;2022-12-18T03:46:17;-1.90;78.10
63219;DHT22;49320;52.512;13.448;2022-12-18T03:49:14;-1.90;78.30
63219;DHT22;49320;52.512;13.448;2022-12-18T03:51:59;-1.90;77.80
63219;DHT22;49320;52.512;13.448;2022-12-18T03:54:30;-1.90;78.40
63219;DHT22;49320;52.512;13.448;2022-12-18T03:57:14;-2.00;78.10
63219;DHT22;49320;52.512;13.448;2022-12-18T03:59:45;-1.90;78.10
63219;DHT22;49320;52.512;13.448;2022-12-18T04:02:16;-1.90;78.00
63219;DHT22;49320;52.512;13.448;2022-12-18T04:04:44;-1.80;78.10
63219;DHT22;49320;52.512;13.448;2022-12-18T04:07:14;-1.90;78.00
63219;DHT22;49320;52.512;13.448;2022-12-18T04:09:43;-1.90;77.80
63219;DHT22;49320;52.512;13.448;2022-12-18T04:12:12;-1.90;77.90
63219;DHT22;49320;52.512;13.448;2022-12-18T04:14:39;-1.90;78.00
63219;DHT22;49320;52.512;13.448;2022-12-18T04:17:06;-1.90;78.20
63219;DHT22;49320;52.512;13.448;2022-12-18T04:19:32;-1.90;78.30
63219;DHT22;49320;52.512;13.448;2022-12-18T04:21:59;-1.90;78.20
63219;DHT22;49320;52.512;13.448;2022-12-18T04:24:26;-1.90;78.00
63219;DHT22;49320;52.512;13.448;2022-12-18T04:26:53;-1.90;77.90
63219;DHT22;49320;52.512;13.448;2022-12-18T04:29:20;-1.90;77.70
63219;DHT22;49320;52.512;13.448;2022-12-18T04:31:46;-1.90;77.70
63219;DHT22;49320;52.512;13.448;2022-12-18T04:34:13;-2.00;77.50
63219;DHT22;49320;52.512;13.448;2022-12-18T04:36:41;-2.00;77.40
63219;DHT22;49320;52.512;13.448;2022-12-18T04:39:07;-2.00;77.40
63219;DHT22;49320;52.512;13.448;2022-12-18T04:41:34;-2.10;77.40
63219;DHT22;49320;52.512;13.448;2022-12-18T04:44:01;-2.10;77.60
63219;DHT22;49320;52.512;13.448;2022-12-18T04:46:28;-2.20;77.60
63219;DHT22;49320;52.512;13.448;2022-12-18T04:48:55;-2.10;78.00
63219;DHT22;49320;52.512;13.448;2022-12-18T04:51:22;-2.20;77.40
63219;DHT22;49320;52.512;13.448;2022-12-18T04:53:52;-2.20;78.00
63219;DHT22;49320;52.512;13.448;2022-12-18T04:56:20;-2.30;78.00
63219;DHT22;49320;52.512;13.448;2022-12-18T04:58:47;-2.40;78.10
63219;DHT22;49320;52.512;13.448;2022-12-18T05:01:15;-2.20;78.20
63219;DHT22;49320;52.512;13.448;2022-12-18T05:03:43;-2.30;78.20
63219;DHT22;49320;52.512;13.448;2022-12-18T05:06:11;-2.20;78.20
63219;DHT22;49320;52.512;13.448;2022-12-18T05:08:37;-2.30;78.10
63219;DHT22;49320;52.512;13.448;2022-12-18T05:11:07;-2.30;78.40
63219;DHT22;49320;52.512;13.448;2022-12-18T05:13:37;-2.30;78.50
63219;DHT22;49320;52.512;13.448;2022-12-18T05:16:06;-2.30;78.60
63219;DHT22;49320;52.512;13.448;2022-12-18T05:18:33;-2.30;78.70
63219;DHT22;49320;52.512;13.448;2022-12-18T05:21:01;-2.20;78.70
63219;DHT22;49320;52.512;13.448;2022-12-18T05:23:28;-2.20;78.80
63219;DHT22;49320;52.512;13.448;2022-12-18T05:25:59;-2.30;78.80
63219;DHT22;49320;52.512;13.448;2022-12-18T05:28:29;-2.20;78.90
63219;DHT22;49320;52.512;13.448;2022-12-18T05:30:59;-2.20;78.90
63219;DHT22;49320;52.512;13.448;2022-12-18T05:33:29;-2.20;78.90
63219;DHT22;49320;52.512;13.448;2022-12-18T05:35:59;-2.10;79.00
63219;DHT22;49320;52.512;13.448;2022-12-18T05:38:28;-2.10;79.00
63219;DHT22;49320;52.512;13.448;2022-12-18T05:40:56;-2.10;79.00
63219;DHT22;49320;52.512;13.448;2022-12-18T05:43:27;-2.00;79.10
63219;DHT22;49320;52.512;13.448;2022-12-18T05:45:54;-2.10;78.90
63219;DHT22;49320;52.512;13.448;2022-12-18T05:48:22;-2.00;78.80
63219;DHT22;49320;52.512;13.448;2022-12-18T05:50:50;-1.90;78.80
63219;DHT22;49320;52.512;13.448;2022-12-18T05:53:19;-1.90;78.80
63219;DHT22;49320;52.512;13.448;2022-12-18T05:55:47;-1.90;78.70
63219;DHT22;49320;52.512;13.448;2022-12-18T05:58:15;-1.90;78.50
63219;DHT22;49320;52.512;13.448;2022-12-18T06:00:44;-1.90;78.40
63219;DHT22;49320;52.512;13.448;2022-12-18T06:03:12;-1.90;78.50
63219;DHT22;49320;52.512;13.448;2022-12-18T06:05:43;-1.90;78.50
63219;DHT22;49320;52.512;13.448;2022-12-18T06:08:12;-1.90;78.60
63219;DHT22;49320;52.512;13.448;2022-12-18T06:10:40;-1.90;78.70
63219;DHT22;49320;52.512;13.448;2022-12-18T06:13:07;-2.00;78.70
63219;DHT22;49320;52.512;13.448;2022-12-18T06:15:37;-1.90;78.90
63219;DHT22;49320;52.512;13.448;2022-12-18T06:18:04;-1.90;79.10
63219;DHT22;49320;52.512;13.448;2022-12-18T06:20:31;-1.90;79.10
63219;DHT22;49320;52.512;13.448;2022-12-18T06:22:59;-1.90;79.20
63219;DHT22;49320;52.512;13.448;2022-12-18T06:25:26;-1.80;79.20
63219;DHT22;49320;52.512;13.448;2022-12-18T06:27:53;-1.80;79.20
63219;DHT22;49320;52.512;13.448;2022-12-18T06:30:20;-1.70;78.70
63219;DHT22;49320;52.512;13.448;2022-12-18T06:32:48;-1.70;79.20
63219;DHT22;49320;52.512;13.448;2022-12-18T06:35:21;-1.70;79.00
63219;DHT22;49320;52.512;13.448;2022-12-18T06:37:48;-1.70;78.60
63219;DHT22;49320;52.512;13.448;2022-12-18T06:40:16;-1.70;78.30
63219;DHT22;49320;52.512;13.448;2022-12-18T06:42:42;-1.70;78.10
63219;DHT22;49320;52.512;13.448;2022-12-18T06:45:10;-1.70;77.60
63219;DHT22;49320;52.512;13.448;2022-12-18T06:47:37;-1.80;78.10
63219;DHT22;49320;52.512;13.448;2022-12-18T06:50:04;-1.70;78.20
63219;DHT22;49320;52.512;13.448;2022-12-18T06:52:32;-1.70;78.20
63219;DHT22;49320;52.512;13.448;2022-12-18T06:55:00;-1.80;78.00
63219;DHT22;49320;52.512;13.448;2022-12-18T06:57:27;-1.80;78.00
63219;DHT22;49320;52.512;13.448;2022-12-18T06:59:54;-1.80;78.10
63219;DHT22;49320;52.512;13.448;2022-12-18T07:02:20;-1.80;78.20
63219;DHT22;49320;52.512;13.448;2022-12-18T07:04:50;-1.80;78.10
63219;DHT22;49320;52.512;13.448;2022-12-18T07:07:17;-1.80;78.30
63219;DHT22;49320;52.512;13.448;2022-12-18T07:09:44;-1.80;78.40
63219;DHT22;49320;52.512;13.448;2022-12-18T07:12:11;-1.90;78.20
63219;DHT22;49320;52.512;13.448;2022-12-18T07:14:37;-1.90;78.30
63219;DHT22;49320;52.512;13.448;2022-12-18T07:17:04;-1.90;78.20
63219;DHT22;49320;52.512;13.448;2022-12-18T07:19:32;-1.90;78.40
63219;DHT22;49320;52.512;13.448;2022-12-18T07:21:59;-1.90;78.60
63219;DHT22;49320;52.512;13.448;2022-12-18T07:24:26;-1.90;78.70
63219;DHT22;49320;52.512;13.448;2022-12-18T07:26:53;-2.00;78.90
63219;DHT22;49320;52.512;13.448;2022-12-18T07:29:20;-1.80;78.90
63219;DHT22;49320;52.512;13.448;2022-12-18T07:31:47;-1.80;78.80
63219;DHT22;49320;52.512;13.448;2022-12-18T07:34:14;-1.80;78.70
63219;DHT22;49320;52.512;13.448;2022-12-18T07:36:42;-1.80;78.50
63219;DHT22;49320;52.512;13.448;2022-12-18T07:39:10;-1.80;78.60
63219;DHT22;49320;52.512;13.448;2022-12-18T07:41:38;-1.80;78.60
63219;DHT22;49320;52.512;13.448;2022-12-18T07:44:12;-1.80;78.50
63219;DHT22;49320;52.512;13.448;2022-12-18T07:46:39;-1.80;78.40
63219;DHT22;49320;52.512;13.448;2022-12-18T07:49:06;-1.70;78.40
63219;DHT22;49320;52.512;13.448;2022-12-18T07:51:35;-1.80;78.20
63219;DHT22;49320;52.512;13.448;2022-12-18T07:54:01;-1.80;78.10
63219;DHT22;49320;52.512;13.448;2022-12-18T07:56:28;-1.80;78.10
63219;DHT22;49320;52.512;13.448;2022-12-18T07:58:58;-1.70;78.30
63219;DHT22;49320;52.512;13.448;2022-12-18T08:01:25;-1.80;78.30
63219;DHT22;49320;52.512;13.448;2022-12-18T08:03:53;-1.70;78.40
63219;DHT22;49320;52.512;13.448;2022-12-18T08:06:19;-1.70;78.50
63219;DHT22;49320;52.512;13.448;2022-12-18T08:08:54;-1.70;78.40
63219;DHT22;49320;52.512;13.448;2022-12-18T08:11:23;-1.70;78.30
63219;DHT22;49320;52.512;13.448;2022-12-18T08:13:51;-1.70;78.20
63219;DHT22;49320;52.512;13.448;2022-12-18T08:16:19;-1.70;78.20
63219;DHT22;49320;52.512;13.448;2022-12-18T08:18:47;-1.60;78.20
63219;DHT22;49320;52.512;13.448;2022-12-18T08:21:21;-1.60;78.20
63219;DHT22;49320;52.512;13.448;2022-12-18T08:23:50;-1.60;78.10
63219;DHT22;49320;52.512;13.448;2022-12-18T08:26:19;-1.60;77.90
63219;DHT22;49320;52.512;13.448;2022-12-18T08:28:47;-1.60;77.90
63219;DHT22;49320;52.512;13.448;2022-12-18T08:31:16;-1.60;77.90
63219;DHT22;49320;52.512;13.448;2022-12-18T08:33:43;-1.60;77.80
63219;DHT22;49320;52.512;13.448;2022-12-18T08:36:10;-1.60;77.70
63219;DHT22;49320;52.512;13.448;2022-12-18T08:38:37;-1.60;77.70
63219;DHT22;49320;52.512;13.448;2022-12-18T08:41:09;-1.00;78.00
63219;DHT22;49320;52.512;13.448;2022-12-18T08:43:38;-1.60;77.50
63219;DHT22;49320;52.512;13.448;2022-12-18T08:46:25;-1.60;77.50
63219;DHT22;49320;52.512;13.448;2022-12-18T08:48:54;-1.60;77.20
63219;DHT22;49320;52.512;13.448;2022-12-18T08:51:22;-1.50;76.40
63219;DHT22;49320;52.512;13.448;2022-12-18T08:53:49;-1.50;77.10
63219;DHT22;49320;52.512;13.448;2022-12-18T08:56:17;-1.50;77.10
63219;DHT22;49320;52.512;13.448;2022-12-18T08:58:44;-1.50;77.20
63219;DHT22;49320;52.512;13.448;2022-12-18T09:01:11;-1.50;77.40
63219;DHT22;49320;52.512;13.448;2022-12-18T09:03:39;-1.50;77.50
63219;DHT22;49320;52.512;13.448;2022-12-18T09:06:08;-1.40;77.60
63219;DHT22;49320;52.512;13.448;2022-12-18T09:08:34;-1.40;77.70
63219;DHT22;49320;52.512;13.448;2022-12-18T09:11:03;-1.40;77.70
63219;DHT22;49320;52.512;13.448;2022-12-18T09:13:30;-1.30;77.70
63219;DHT22;49320;52.512;13.448;2022-12-18T09:15:57;-1.30;77.50
63219;DHT22;49320;52.512;13.448;2022-12-18T09:18:24;-1.20;77.70
63219;DHT22;49320;52.512;13.448;2022-12-18T09:20:51;-1.20;77.80
63219;DHT22;49320;52.512;13.448;2022-12-18T09:23:20;-1.20;77.80
63219;DHT22;49320;52.512;13.448;2022-12-18T09:25:47;-1.10;77.70
63219;DHT22;49320;52.512;13.448;2022-12-18T09:28:17;-1.10;77.70
63219;DHT22;49320;52.512;13.448;2022-12-18T09:30:47;-1.00;77.80
63219;DHT22;49320;52.512;13.448;2022-12-18T09:33:16;-1.00;77.80
63219;DHT22;49320;52.512;13.448;2022-12-18T09:35:44;-0.90;77.70
63219;DHT22;49320;52.512;13.448;2022-12-18T09:38:14;-0.80;77.70
63219;DHT22;49320;52.512;13.448;2022-12-18T09:40:48;-0.80;77.60
63219;DHT22;49320;52.512;13.448;2022-12-18T09:43:22;-0.70;77.60
63219;DHT22;49320;52.512;13.448;2022-12-18T09:45:58;-0.60;77.30
63219;DHT22;49320;52.512;13.448;2022-12-18T09:48:41;-0.60;77.20
63219;DHT22;49320;52.512;13.448;2022-12-18T09:51:21;-0.60;77.10
63219;DHT22;49320;52.512;13.448;2022-12-18T09:53:55;-0.50;77.10
63219;DHT22;49320;52.512;13.448;2022-12-18T09:56:29;-0.50;77.20
63219;DHT22;49320;52.512;13.448;2022-12-18T09:59:02;-0.50;77.30
63219;DHT22;49320;52.512;13.448;2022-12-18T10:01:31;-0.50;77.40
63219;DHT22;49320;52.512;13.448;2022-12-18T10:04:09;-0.40;77.30
63219;DHT22;49320;52.512;13.448;2022-12-18T10:06:47;-0.40;77.30
63219;DHT22;49320;52.512;13.448;2022-12-18T10:09:53;-0.40;77.50
63219;DHT22;49320;52.512;13.448;2022-12-18T10:12:43;-0.40;77.60
63219;DHT22;49320;52.512;13.448;2022-12-18T10:18:31;-0.40;77.90
63219;DHT22;49320;52.512;13.448;2022-12-18T10:21:21;-0.30;78.20
63219;DHT22;49320;52.512;13.448;2022-12-18T10:24:15;-0.20;78.20
63219;DHT22;49320;52.512;13.448;2022-12-18T10:27:17;-0.20;78.00
63219;DHT22;49320;52.512;13.448;2022-12-18T10:29:48;0.00;77.90
63219;DHT22;49320;52.512;13.448;2022-12-18T10:32:21;0.00;77.80
63219;DHT22;49320;52.512;13.448;2022-12-18T10:34:56;0.00;77.80
63219;DHT22;49320;52.512;13.448;2022-12-18T10:37:28;0.10;77.80
63219;DHT22;49320;52.512;13.448;2022-12-18T10:40:13;0.10;77.80
63219;DHT22;49320;52.512;13.448;2022-12-18T10:43:10;0.20;78.00
63219;DHT22;49320;52.512;13.448;2022-12-18T10:45:39;0.20;77.90
63219;DHT22;49320;52.512;13.448;2022-12-18T10:48:21;0.20;77.80
63219;DHT22;49320;52.512;13.448;2022-12-18T10:50:50;0.30;77.90
63219;DHT22;49320;52.512;13.448;2022-12-18T10:53:40;0.30;77.80
63219;DHT22;49320;52.512;13.448;2022-12-18T10:56:09;2.20;79.10
63219;DHT22;49320;52.512;13.448;2022-12-18T10:58:38;0.40;78.00
63219;DHT22;49320;52.512;13.448;2022-12-18T11:03:44;0.40;78.00
63219;DHT22;49320;52.512;13.448;2022-12-18T11:06:28;0.50;77.70
63219;DHT22;49320;52.512;13.448;2022-12-18T11:09:03;0.50;77.50
63219;DHT22;49320;52.512;13.448;2022-12-18T11:11:40;0.50;77.60
63219;DHT22;49320;52.512;13.448;2022-12-18T11:16:49;0.60;77.40
63219;DHT22;49320;52.512;13.448;2022-12-18T11:19:39;0.50;77.30
63219;DHT22;49320;52.512;13.448;2022-12-18T11:22:21;0.60;77.30
63219;DHT22;49320;52.512;13.448;2022-12-18T11:24:56;0.60;77.20
63219;DHT22;49320;52.512;13.448;2022-12-18T11:28:03;0.60;77.70
63219;DHT22;49320;52.512;13.448;2022-12-18T11:30:34;0.60;77.00
63219;DHT22;49320;52.512;13.448;2022-12-18T11:33:13;0.60;77.00
63219;DHT22;49320;52.512;13.448;2022-12-18T11:35:55;0.60;76.80
63219;DHT22;49320;52.512;13.448;2022-12-18T11:38:27;0.70;76.80
63219;DHT22;49320;52.512;13.448;2022-12-18T11:41:18;0.60;76.60
63219;DHT22;49320;52.512;13.448;2022-12-18T11:44:15;0.70;76.30
63219;DHT22;49320;52.512;13.448;2022-12-18T11:46:59;0.60;76.20
63219;DHT22;49320;52.512;13.448;2022-12-18T11:49:33;0.60;76.30
63219;DHT22;49320;52.512;13.448;2022-12-18T11:55:13;0.60;76.60
63219;DHT22;49320;52.512;13.448;2022-12-18T11:57:51;0.60;76.70
63219;DHT22;49320;52.512;13.448;2022-12-18T12:00:28;0.60;76.70
63219;DHT22;49320;52.512;13.448;2022-12-18T12:06:59;0.50;76.60
63219;DHT22;49320;52.512;13.448;2022-12-18T12:10:07;0.50;76.60
63219;DHT22;49320;52.512;13.448;2022-12-18T12:12:32;0.50;76.80
63219;DHT22;49320;52.512;13.448;2022-12-18T12:15:36;0.50;76.90
63219;DHT22;49320;52.512;13.448;2022-12-18T12:27:32;0.60;76.60
63219;DHT22;49320;52.512;13.448;2022-12-18T12:33:12;0.50;76.50
63219;DHT22;49320;52.512;13.448;2022-12-18T12:38:42;0.50;76.80
63219;DHT22;49320;52.512;13.448;2022-12-18T12:41:20;0.50;76.90
63219;DHT22;49320;52.512;13.448;2022-12-18T12:44:16;0.50;77.00
63219;DHT22;49320;52.512;13.448;2022-12-18T12:46:49;0.60;77.00
63219;DHT22;49320;52.512;13.448;2022-12-18T12:49:22;0.60;76.80
63219;DHT22;49320;52.512;13.448;2022-12-18T12:52:28;0.60;76.30
63219;DHT22;49320;52.512;13.448;2022-12-18T12:55:14;0.60;77.00
63219;DHT22;49320;52.512;13.448;2022-12-18T13:07:03;0.60;77.50
63219;DHT22;49320;52.512;13.448;2022-12-18T13:15:39;0.60;76.40
63219;DHT22;49320;52.512;13.448;2022-12-18T13:23:36;0.70;76.50
63219;DHT22;49320;52.512;13.448;2022-12-18T13:31:15;0.60;76.60
63219;DHT22;49320;52.512;13.448;2022-12-18T13:34:20;0.70;76.70
63219;DHT22;49320;52.512;13.448;2022-12-18T13:36:56;0.70;76.60
63219;DHT22;49320;52.512;13.448;2022-12-18T13:39:44;0.70;76.70
63219;DHT22;49320;52.512;13.448;2022-12-18T13:44:58;0.60;76.60
63219;DHT22;49320;52.512;13.448;2022-12-18T13:47:32;0.70;76.50
63219;DHT22;49320;52.512;13.448;2022-12-18T13:50:08;0.70;75.70
63219;DHT22;49320;52.512;13.448;2022-12-18T13:55:17;0.70;75.60
63219;DHT22;49320;52.512;13.448;2022-12-18T13:57:47;0.70;76.20
63219;DHT22;49320;52.512;13.448;2022-12-18T14:02:58;0.70;76.10
63219;DHT22;49320;52.512;13.448;2022-12-18T14:05:31;0.70;76.30
63219;DHT22;49320;52.512;13.448;2022-12-18T14:08:12;0.70;76.30
63219;DHT22;49320;52.512;13.448;2022-12-18T14:10:43;0.70;76.30
63219;DHT22;49320;52.512;13.448;2022-12-18T14:13:30;0.70;76.50
63219;DHT22;49320;52.512;13.448;2022-12-18T14:16:02;0.70;76.60
63219;DHT22;49320;52.512;13.448;2022-12-18T14:18:52;0.80;76.60
63219;DHT22;49320;52.512;13.448;2022-12-18T14:21:29;0.80;76.60
63219;DHT22;49320;52.512;13.448;2022-12-18T14:26:35;0.60;76.50
63219;DHT22;49320;52.512;13.448;2022-12-18T14:29:25;0.80;76.50
63219;DHT22;49320;52.512;13.448;2022-12-18T14:32:16;0.70;76.40
63219;DHT22;49320;52.512;13.448;2022-12-18T14:34:49;0.70;76.30
63219;DHT22;49320;52.512;13.448;2022-12-18T14:37:22;0.70;76.30
63219;DHT22;49320;52.512;13.448;2022-12-18T14:39:53;0.70;76.30
63219;DHT22;49320;52.512;13.448;2022-12-18T14:42:36;0.60;76.40
63219;DHT22;49320;52.512;13.448;2022-12-18T14:45:32;0.60;75.60
63219;DHT22;49320;52.512;13.448;2022-12-18T14:48:19;0.60;76.20
63219;DHT22;49320;52.512;13.448;2022-12-18T14:51:16;0.60;75.30
63219;DHT22;49320;52.512;13.448;2022-12-18T14:53:47;0.50;75.90
63219;DHT22;49320;52.512;13.448;2022-12-18T14:56:29;0.50;75.80
63219;DHT22;49320;52.512;13.448;2022-12-18T14:59:00;1.70;76.60
63219;DHT22;49320;52.512;13.448;2022-12-18T15:01:37;0.40;75.90
63219;DHT22;49320;52.512;13.448;2022-12-18T15:04:30;0.40;76.00
63219;DHT22;49320;52.512;13.448;2022-12-18T15:09:38;0.40;76.30
63219;DHT22;49320;52.512;13.448;2022-12-18T15:12:28;0.40;76.40
63219;DHT22;49320;52.512;13.448;2022-12-18T15:20:45;0.30;76.70
63219;DHT22;49320;52.512;13.448;2022-12-18T15:23:21;0.30;76.90
63219;DHT22;49320;52.512;13.448;2022-12-18T15:26:08;0.30;77.10
63219;DHT22;49320;52.512;13.448;2022-12-18T15:28:43;0.30;77.20
63219;DHT22;49320;52.512;13.448;2022-12-18T15:34:05;0.40;77.20
63219;DHT22;49320;52.512;13.448;2022-12-18T15:36:31;0.40;77.20
63219;DHT22;49320;52.512;13.448;2022-12-18T15:39:03;0.40;77.10
63219;DHT22;49320;52.512;13.448;2022-12-18T15:41:34;0.40;77.10
63219;DHT22;49320;52.512;13.448;2022-12-18T15:44:03;0.40;77.20
63219;DHT22;49320;52.512;13.448;2022-12-18T15:46:48;0.40;77.10
63219;DHT22;49320;52.512;13.448;2022-12-18T15:49:15;0.40;77.00
63219;DHT22;49320;52.512;13.448;2022-12-18T15:51:42;0.40;76.80
63219;DHT22;49320;52.512;13.448;2022-12-18T15:54:13;0.40;76.60
63219;DHT22;49320;52.512;13.448;2022-12-18T15:56:42;0.40;76.50
63219;DHT22;49320;52.512;13.448;2022-12-18T15:59:27;0.40;76.40
63219;DHT22;49320;52.512;13.448;2022-12-18T16:01:56;0.30;76.20
63219;DHT22;49320;52.512;13.448;2022-12-18T16:04:23;0.30;76.10
63219;DHT22;49320;52.512;13.448;2022-12-18T16:06:51;0.20;76.00
63219;DHT22;49320;52.512;13.448;2022-12-18T16:09:40;0.20;76.00
63219;DHT22;49320;52.512;13.448;2022-12-18T16:12:15;0.20;76.10
63219;DHT22;49320;52.512;13.448;2022-12-18T16:14:44;0.20;76.20
63219;DHT22;49320;52.512;13.448;2022-12-18T16:17:13;0.10;76.30
63219;DHT22;49320;52.512;13.448;2022-12-18T16:19:40;0.10;76.50
63219;DHT22;49320;52.512;13.448;2022-12-18T16:22:19;0.10;76.60
63219;DHT22;49320;52.512;13.448;2022-12-18T16:24:54;0.10;76.70
63219;DHT22;49320;52.512;13.448;2022-12-18T16:27:23;0.10;76.70
63219;DHT22;49320;52.512;13.448;2022-12-18T16:29:50;0.10;76.70
63219;DHT22;49320;52.512;13.448;2022-12-18T16:32:19;0.20;76.70
63219;DHT22;49320;52.512;13.448;2022-12-18T16:34:49;0.10;76.80
63219;DHT22;49320;52.512;13.448;2022-12-18T16:37:16;0.00;76.60
63219;DHT22;49320;52.512;13.448;2022-12-18T16:39:43;0.20;76.70
63219;DHT22;49320;52.512;13.448;2022-12-18T16:42:14;0.20;76.60
63219;DHT22;49320;52.512;13.448;2022-12-18T16:44:46;0.10;76.50
63219;DHT22;49320;52.512;13.448;2022-12-18T16:47:13;0.10;76.30
63219;DHT22;49320;52.512;13.448;2022-12-18T16:49:42;0.10;76.20
63219;DHT22;49320;52.512;13.448;2022-12-18T16:52:11;0.10;76.20
63219;DHT22;49320;52.512;13.448;2022-12-18T16:54:38;0.00;76.20
63219;DHT22;49320;52.512;13.448;2022-12-18T16:57:05;0.10;76.30
63219;DHT22;49320;52.512;13.448;2022-12-18T16:59:32;0.00;76.50
63219;DHT22;49320;52.512;13.448;2022-12-18T17:01:59;0.10;76.60
63219;DHT22;49320;52.512;13.448;2022-12-18T17:04:26;0.10;76.70
63219;DHT22;49320;52.512;13.448;2022-12-18T17:06:53;0.00;76.70
63219;DHT22;49320;52.512;13.448;2022-12-18T17:09:21;0.00;76.60
63219;DHT22;49320;52.512;13.448;2022-12-18T17:11:51;0.10;76.60
63219;DHT22;49320;52.512;13.448;2022-12-18T17:14:20;0.00;77.20
63219;DHT22;49320;52.512;13.448;2022-12-18T17:16:48;0.00;76.60
63219;DHT22;49320;52.512;13.448;2022-12-18T17:19:35;0.00;76.60
63219;DHT22;49320;52.512;13.448;2022-12-18T17:22:02;0.00;76.70
63219;DHT22;49320;52.512;13.448;2022-12-18T17:24:30;0.00;76.70
63219;DHT22;49320;52.512;13.448;2022-12-18T17:27:01;-0.10;76.60
63219;DHT22;49320;52.512;13.448;2022-12-18T17:29:29;-0.10;76.60
63219;DHT22;49320;52.512;13.448;2022-12-18T17:31:56;-0.10;76.60
63219;DHT22;49320;52.512;13.448;2022-12-18T17:34:26;-0.10;76.70
63219;DHT22;49320;52.512;13.448;2022-12-18T17:36:53;-0.10;76.80